createdAt,value
2023-02-06T00:01:51.707Z,73.58
2023-02-06T00:04:19.599Z,73.98
2023-02-06T00:06:47.133Z,73.78
2023-02-06T00:09:15.932Z,73.53
2023-02-06T00:11:43.590Z,73.71
2023-02-06T00:14:11.508Z,73.98
2023-02-06T00:16:39.145Z,73.94
2023-02-06T00:19:06.952Z,73.95
2023-02-06T00:21:34.751Z,73.57
2023-02-06T00:24:03.121Z,73.40
2023-02-06T00:26:31.673Z,73.46
2023-02-06T00:28:59.685Z,73.52
2023-02-06T00:31:27.209Z,73.36
2023-02-06T00:33:55.530Z,73.08
2023-02-06T00:36:23.493Z,72.93
2023-02-06T00:38:52.694Z,72.96
2023-02-06T00:41:21.021Z,73.08
2023-02-06T00:43:48.870Z,72.99
2023-02-06T00:46:17.221Z,72.60
2023-02-06T00:48:45.220Z,72.13
2023-02-06T00:51:12.954Z,72.83
2023-02-06T00:53:41.053Z,72.99
2023-02-06T00:56:08.620Z,72.55
2023-02-06T00:58:37.019Z,72.87
2023-02-06T01:01:05.026Z,73.40
2023-02-06T01:03:32.911Z,73.97
2023-02-06T01:06:00.551Z,74.08
2023-02-06T01:08:28.458Z,73.95
2023-02-06T01:10:55.927Z,74.47
2023-02-06T01:13:23.807Z,75.04
2023-02-06T01:15:51.522Z,74.91
2023-02-06T01:18:19.509Z,74.64
2023-02-06T01:20:47.040Z,74.46
2023-02-06T01:23:14.937Z,74.38
2023-02-06T01:25:43.291Z,74.28
2023-02-06T01:28:11.343Z,74.12
2023-02-06T01:30:39.439Z,73.90
2023-02-06T01:33:07.240Z,73.30
2023-02-06T01:35:35.125Z,73.78
2023-02-06T01:38:03.012Z,74.08
2023-02-06T01:40:30.494Z,73.81
2023-02-06T01:42:58.718Z,73.79
2023-02-06T01:45:38.020Z,73.47
2023-02-06T01:48:13.527Z,73.55
2023-02-06T01:50:46.074Z,73.25
2023-02-06T01:53:16.381Z,73.43
2023-02-06T01:55:47.944Z,73.54
2023-02-06T01:58:24.321Z,73.28
2023-02-06T02:00:52.208Z,73.51
2023-02-06T02:03:20.429Z,73.67
2023-02-06T02:05:49.987Z,73.79
2023-02-06T02:08:27.864Z,73.41
2023-02-06T02:10:55.467Z,73.91
2023-02-06T02:13:23.388Z,74.19
2023-02-06T02:16:40.946Z,74.40
2023-02-06T02:19:51.760Z,74.24
2023-02-06T02:22:58.246Z,73.84
2023-02-06T02:26:04.337Z,74.00
2023-02-06T02:28:56.155Z,73.62
2023-02-06T02:31:44.980Z,73.97
2023-02-06T02:34:33.787Z,73.45
2023-02-06T02:37:31.468Z,73.46
2023-02-06T02:40:37.638Z,73.90
2023-02-06T02:43:50.165Z,74.02
2023-02-06T02:46:43.186Z,73.87
2023-02-06T02:49:25.205Z,73.91
2023-02-06T02:51:54.606Z,74.19
2023-02-06T02:54:22.489Z,74.08
2023-02-06T02:56:49.952Z,74.63
2023-02-06T02:59:29.219Z,74.17
2023-02-06T03:02:12.970Z,74.20
2023-02-06T03:04:51.191Z,74.29
2023-02-06T03:07:46.112Z,74.34
2023-02-06T03:10:23.535Z,74.45
2023-02-06T03:12:58.292Z,74.70
2023-02-06T03:16:15.677Z,74.75
2023-02-06T03:19:05.488Z,74.91
2023-02-06T03:21:36.777Z,74.92
2023-02-06T03:24:33.478Z,74.66
2023-02-06T03:27:08.550Z,74.61
2023-02-06T03:29:39.167Z,74.31
2023-02-06T03:32:34.545Z,74.29
2023-02-06T03:35:22.524Z,74.44
2023-02-06T03:37:50.980Z,74.58
2023-02-06T03:40:19.339Z,75.22
2023-02-06T03:42:56.454Z,75.36
2023-02-06T03:45:33.917Z,75.15
2023-02-06T03:48:23.874Z,75.38
2023-02-06T03:50:54.436Z,75.22
2023-02-06T03:53:24.666Z,74.97
2023-02-06T03:55:59.769Z,75.21
2023-02-06T03:58:27.783Z,74.91
2023-02-06T04:00:55.550Z,74.52
2023-02-06T04:03:23.489Z,74.55
2023-02-06T04:05:51.006Z,74.86
2023-02-06T04:08:18.873Z,74.63
2023-02-06T04:10:46.345Z,74.70
2023-02-06T04:13:14.235Z,74.28
2023-02-06T04:15:41.848Z,74.22
2023-02-06T04:18:09.602Z,74.53
2023-02-06T04:20:41.005Z,74.40
2023-02-06T04:23:09.445Z,74.63
2023-02-06T04:25:37.265Z,74.73
2023-02-06T04:28:05.501Z,74.98
2023-02-06T04:30:33.153Z,74.93
2023-02-06T04:33:01.004Z,75.35
2023-02-06T04:35:28.549Z,75.76
2023-02-06T04:37:56.636Z,76.24
2023-02-06T04:40:24.391Z,75.95
2023-02-06T04:42:52.176Z,75.97
2023-02-06T04:45:19.717Z,75.93
2023-02-06T04:47:50.763Z,75.69
2023-02-06T04:50:18.711Z,75.61
2023-02-06T04:52:46.687Z,75.59
2023-02-06T04:55:14.268Z,75.86
2023-02-06T04:57:42.731Z,75.81
2023-02-06T05:00:11.239Z,75.04
2023-02-06T05:02:39.972Z,75.81
2023-02-06T05:05:09.972Z,75.79
2023-02-06T05:07:37.943Z,76.05
2023-02-06T05:10:05.774Z,75.94
2023-02-06T05:12:33.761Z,76.10
2023-02-06T05:15:01.128Z,75.97
2023-02-06T05:17:29.038Z,75.71
2023-02-06T05:19:58.169Z,75.16
2023-02-06T05:22:26.314Z,74.87
2023-02-06T05:24:53.930Z,75.01
2023-02-06T05:27:22.042Z,75.29
2023-02-06T05:29:49.470Z,74.77
2023-02-06T05:32:18.326Z,75.39
2023-02-06T05:34:46.146Z,75.39
2023-02-06T05:37:13.955Z,75.59
2023-02-06T05:39:41.405Z,75.38
2023-02-06T05:42:09.288Z,76.07
2023-02-06T05:44:36.872Z,75.91
2023-02-06T05:47:04.767Z,75.56
2023-02-06T05:49:32.383Z,76.25
2023-02-06T05:52:00.119Z,76.91
2023-02-06T05:54:27.673Z,76.61
2023-02-06T05:56:57.251Z,76.78
2023-02-06T05:59:24.914Z,76.75
2023-02-06T06:01:52.844Z,76.26
2023-02-06T06:04:20.520Z,76.57
2023-02-06T06:06:48.467Z,76.34
2023-02-06T06:09:16.197Z,76.08
2023-02-06T06:11:44.063Z,76.02
2023-02-06T06:14:12.350Z,76.14
2023-02-06T06:16:40.860Z,76.22
2023-02-06T06:19:08.874Z,75.65
2023-02-06T06:21:37.107Z,75.80
2023-02-06T06:24:04.983Z,75.43
2023-02-06T06:26:32.880Z,75.69
2023-02-06T06:29:00.449Z,75.26
2023-02-06T06:31:28.422Z,75.02
2023-02-06T06:33:55.931Z,74.72
2023-02-06T06:36:23.987Z,75.03
2023-02-06T06:38:51.411Z,74.96
2023-02-06T06:41:19.145Z,74.54
2023-02-06T06:43:46.645Z,75.34
2023-02-06T06:46:14.395Z,75.15
2023-02-06T06:48:41.872Z,75.61
2023-02-06T06:51:09.894Z,74.70
2023-02-06T06:53:40.094Z,75.01
2023-02-06T06:56:11.797Z,74.88
2023-02-06T06:58:40.638Z,74.09
2023-02-06T07:01:09.138Z,75.33
2023-02-06T07:03:36.974Z,74.55
2023-02-06T07:06:05.904Z,75.30
2023-02-06T07:08:33.422Z,74.82
2023-02-06T07:11:01.367Z,74.17
2023-02-06T07:13:28.797Z,74.26
2023-02-06T07:15:56.681Z,74.40
2023-02-06T07:18:24.164Z,74.69
2023-02-06T07:20:52.037Z,75.19
2023-02-06T07:23:19.597Z,74.92
2023-02-06T07:25:47.574Z,74.73
2023-02-06T07:28:15.287Z,75.09
2023-02-06T07:30:43.265Z,74.94
2023-02-06T07:33:10.923Z,75.04
2023-02-06T07:35:38.879Z,74.59
2023-02-06T07:38:06.524Z,73.93
2023-02-06T07:40:44.756Z,74.19
2023-02-06T07:43:13.950Z,73.51
2023-02-06T07:45:42.436Z,73.58
2023-02-06T07:48:10.434Z,73.46
2023-02-06T07:50:38.711Z,72.93
2023-02-06T07:53:07.945Z,72.20
2023-02-06T07:55:37.819Z,72.67
2023-02-06T07:58:05.573Z,72.61
2023-02-06T08:00:33.715Z,72.71
2023-02-06T08:03:01.290Z,73.62
2023-02-06T08:05:31.233Z,73.43
2023-02-06T08:07:58.880Z,73.49
2023-02-06T08:10:27.595Z,73.33
2023-02-06T08:12:55.098Z,73.94
2023-02-06T08:15:23.018Z,73.92
2023-02-06T08:17:50.520Z,73.69
2023-02-06T08:20:18.529Z,73.06
2023-02-06T08:22:46.754Z,73.02
2023-02-06T08:25:14.799Z,73.15
2023-02-06T08:27:42.367Z,72.70
2023-02-06T08:30:11.166Z,71.87
2023-02-06T08:32:39.295Z,71.25
2023-02-06T08:35:07.305Z,70.53
2023-02-06T08:37:34.999Z,69.73
2023-02-06T08:40:03.731Z,69.94
2023-02-06T08:42:31.324Z,70.00
2023-02-06T08:44:59.284Z,70.32
2023-02-06T08:47:26.800Z,69.62
2023-02-06T08:49:55.759Z,70.21
2023-02-06T08:52:23.494Z,69.49
2023-02-06T08:54:52.953Z,68.47
2023-02-06T08:57:20.623Z,68.14
2023-02-06T08:59:49.769Z,69.02
2023-02-06T09:02:17.538Z,69.58
2023-02-06T09:04:45.919Z,69.51
2023-02-06T09:07:15.186Z,69.05
2023-02-06T09:09:45.334Z,68.42
2023-02-06T09:12:13.085Z,68.22
2023-02-06T09:14:40.894Z,67.83
2023-02-06T09:17:08.781Z,67.22
2023-02-06T09:19:36.632Z,66.84
2023-02-06T09:22:06.318Z,66.94
2023-02-06T09:24:35.249Z,66.22
2023-02-06T09:27:03.009Z,66.34
2023-02-06T09:29:32.076Z,65.30
2023-02-06T09:32:00.430Z,64.22
2023-02-06T09:34:29.000Z,63.75
2023-02-06T09:36:57.880Z,63.86
2023-02-06T09:39:26.356Z,63.57
2023-02-06T09:42:07.814Z,62.63
2023-02-06T09:44:56.303Z,63.12
2023-02-06T09:47:35.704Z,63.34
2023-02-06T09:50:30.829Z,63.26
2023-02-06T09:53:22.994Z,63.26
2023-02-06T09:56:30.772Z,63.06
2023-02-06T09:59:31.997Z,62.91
2023-02-06T10:02:20.983Z,62.84
2023-02-06T10:05:19.028Z,63.41
2023-02-06T10:08:11.907Z,63.87
2023-02-06T10:10:59.674Z,62.22
2023-02-06T10:14:02.432Z,62.53
2023-02-06T10:16:39.578Z,63.50
2023-02-06T10:19:30.846Z,62.48
2023-02-06T10:22:30.921Z,62.64
2023-02-06T10:25:18.733Z,63.19
2023-02-06T10:27:54.831Z,63.62
2023-02-06T10:30:46.391Z,63.52
2023-02-06T10:33:47.270Z,63.32
2023-02-06T10:36:46.052Z,63.23
2023-02-06T10:39:52.813Z,62.84
2023-02-06T10:43:03.849Z,61.50
2023-02-06T10:45:39.256Z,61.27
2023-02-06T10:48:09.790Z,62.71
2023-02-06T10:50:58.703Z,62.85
2023-02-06T10:53:36.672Z,62.91
2023-02-06T10:56:13.133Z,61.95
2023-02-06T10:58:48.968Z,61.57
2023-02-06T11:01:26.077Z,61.11
2023-02-06T11:04:17.711Z,60.81
2023-02-06T11:06:46.909Z,60.79
2023-02-06T11:09:16.156Z,60.70
2023-02-06T11:11:51.399Z,61.36
2023-02-06T11:14:35.501Z,61.02
2023-02-06T11:17:03.202Z,61.45
2023-02-06T11:19:42.325Z,60.65
2023-02-06T11:22:25.961Z,58.73
2023-02-06T11:25:07.609Z,58.62
2023-02-06T11:27:36.566Z,60.14
2023-02-06T11:30:30.017Z,60.55
2023-02-06T11:33:04.573Z,59.07
2023-02-06T11:35:40.288Z,59.05
2023-02-06T11:38:19.806Z,58.55
2023-02-06T11:41:02.480Z,57.57
2023-02-06T11:43:42.074Z,56.87
2023-02-06T11:46:20.606Z,57.64
2023-02-06T11:48:58.592Z,57.38
2023-02-06T11:51:47.640Z,57.37
2023-02-06T11:54:35.191Z,56.33
2023-02-06T11:57:08.080Z,56.20
2023-02-06T11:59:37.535Z,57.14
2023-02-06T12:02:30.967Z,56.92
2023-02-06T12:05:15.657Z,56.76
2023-02-06T12:08:16.449Z,55.92
2023-02-06T12:10:59.949Z,54.84
2023-02-06T12:13:45.043Z,54.79
2023-02-06T12:16:15.383Z,54.51
2023-02-06T12:18:49.755Z,53.61
2023-02-06T12:21:30.121Z,53.98
2023-02-06T12:24:05.872Z,55.15
2023-02-06T12:26:38.132Z,55.41
2023-02-06T12:29:18.296Z,54.32
2023-02-06T12:32:18.384Z,54.68
2023-02-06T12:35:25.193Z,54.38
2023-02-06T12:38:08.074Z,54.35
2023-02-06T12:40:56.620Z,54.04
2023-02-06T12:43:24.278Z,53.60
2023-02-06T12:46:09.109Z,53.42
2023-02-06T12:48:56.372Z,52.33
2023-02-06T12:51:37.638Z,50.99
2023-02-06T12:54:31.440Z,52.07
2023-02-06T12:57:13.503Z,52.09
2023-02-06T13:00:19.113Z,52.66
2023-02-06T13:03:28.799Z,51.71
2023-02-06T13:06:02.716Z,51.11
2023-02-06T13:08:58.643Z,49.90
2023-02-06T13:11:35.841Z,50.28
2023-02-06T13:14:27.731Z,48.04
2023-02-06T13:17:11.889Z,47.26
2023-02-06T13:19:39.555Z,46.84
2023-02-06T13:22:09.833Z,47.18
2023-02-06T13:24:40.566Z,47.18
2023-02-06T13:27:07.861Z,47.84
2023-02-06T13:29:48.352Z,49.21
2023-02-06T13:32:15.724Z,49.23
2023-02-06T13:34:44.485Z,50.05
2023-02-06T13:37:33.298Z,50.36
2023-02-06T13:40:23.299Z,52.00
2023-02-06T13:43:26.255Z,52.13
2023-02-06T13:46:11.005Z,53.19
2023-02-06T13:49:30.011Z,52.71
2023-02-06T13:52:22.888Z,53.28
2023-02-06T13:55:13.045Z,53.52
2023-02-06T13:58:12.452Z,53.67
2023-02-06T14:00:43.851Z,53.50
2023-02-06T14:03:31.700Z,53.09
2023-02-06T14:06:11.049Z,53.57
2023-02-06T14:09:15.359Z,53.72
2023-02-06T14:12:28.466Z,52.93
2023-02-06T14:15:46.132Z,53.33
2023-02-06T14:18:47.526Z,54.08
2023-02-06T14:21:45.728Z,54.10
2023-02-06T14:24:34.393Z,54.76
2023-02-06T14:27:23.563Z,55.29
2023-02-06T14:30:45.283Z,53.74
2023-02-06T14:34:11.746Z,52.40
2023-02-06T14:36:56.524Z,52.54
2023-02-06T14:39:52.027Z,53.03
2023-02-06T14:42:43.184Z,53.11
2023-02-06T14:45:42.449Z,53.31
2023-02-06T14:48:52.080Z,53.41
2023-02-06T14:51:34.133Z,54.30
2023-02-06T14:54:06.619Z,52.25
2023-02-06T14:56:39.135Z,50.95
2023-02-06T14:59:19.015Z,50.63
2023-02-06T15:01:51.189Z,50.94
2023-02-06T15:04:28.511Z,52.19
2023-02-06T15:07:00.246Z,53.40
2023-02-06T15:09:44.000Z,53.68
2023-02-06T15:12:26.680Z,54.51
2023-02-06T15:15:15.584Z,54.50
2023-02-06T15:17:43.967Z,55.01
2023-02-06T15:20:41.854Z,56.23
2023-02-06T15:23:58.181Z,56.46
2023-02-06T15:27:04.031Z,56.50
2023-02-06T15:29:31.891Z,57.74
2023-02-06T15:32:18.013Z,57.71
2023-02-06T15:34:46.992Z,58.25
2023-02-06T15:37:34.728Z,58.46
2023-02-06T15:40:33.794Z,58.39
2023-02-06T15:43:03.086Z,58.74
2023-02-06T15:45:37.611Z,58.08
2023-02-06T15:48:21.658Z,58.82
2023-02-06T15:51:29.569Z,59.33
2023-02-06T15:54:29.600Z,59.57
2023-02-06T15:57:19.374Z,59.85
2023-02-06T15:59:47.545Z,59.28
2023-02-06T16:02:35.619Z,59.19
2023-02-06T16:05:04.935Z,58.64
2023-02-06T16:07:35.967Z,59.22
2023-02-06T16:10:25.448Z,58.85
2023-02-06T16:12:55.289Z,59.53
2023-02-06T16:15:35.129Z,58.61
2023-02-06T16:18:23.829Z,58.61
2023-02-06T16:20:51.622Z,59.31
2023-02-06T16:23:20.823Z,59.21
2023-02-06T16:26:14.436Z,59.31
2023-02-06T16:29:03.375Z,59.91
2023-02-06T16:31:34.792Z,60.10
2023-02-06T16:34:18.593Z,60.16
2023-02-06T16:36:46.140Z,61.47
2023-02-06T16:39:13.844Z,60.92
2023-02-06T16:41:41.454Z,61.08
2023-02-06T16:44:15.654Z,61.16
2023-02-06T16:46:43.751Z,61.64
2023-02-06T16:49:15.775Z,61.41
2023-02-06T16:51:45.256Z,61.27
2023-02-06T16:54:24.977Z,61.78
2023-02-06T16:56:54.597Z,61.29
2023-02-06T16:59:23.175Z,61.98
2023-02-06T17:01:50.991Z,61.77
2023-02-06T17:04:18.912Z,61.87
2023-02-06T17:06:47.360Z,61.85
2023-02-06T17:09:18.149Z,61.91
2023-02-06T17:11:45.966Z,62.61
2023-02-06T17:14:14.642Z,62.95
2023-02-06T17:16:42.308Z,62.30
2023-02-06T17:19:15.045Z,62.86
2023-02-06T17:21:42.858Z,62.88
2023-02-06T17:24:10.717Z,63.75
2023-02-06T17:26:38.332Z,63.21
2023-02-06T17:29:06.237Z,63.42
2023-02-06T17:31:33.809Z,63.71
2023-02-06T17:34:01.665Z,63.71
2023-02-06T17:36:33.364Z,63.73
2023-02-06T17:39:02.069Z,63.43
2023-02-06T17:41:31.320Z,64.05
2023-02-06T17:43:59.326Z,64.14
2023-02-06T17:46:26.937Z,64.37
2023-02-06T17:48:54.728Z,64.09
2023-02-06T17:51:22.282Z,64.10
2023-02-06T17:53:51.842Z,64.35
2023-02-06T17:56:20.537Z,64.05
2023-02-06T17:58:48.580Z,64.29
2023-02-06T18:01:23.014Z,64.40
2023-02-06T18:03:51.575Z,64.69
2023-02-06T18:06:20.441Z,64.50
2023-02-06T18:08:48.992Z,64.96
2023-02-06T18:11:21.353Z,64.23
2023-02-06T18:13:50.159Z,64.96
2023-02-06T18:16:24.317Z,65.23
2023-02-06T18:18:52.327Z,64.45
2023-02-06T18:21:21.632Z,63.76
2023-02-06T18:23:49.559Z,63.95
2023-02-06T18:26:17.617Z,64.64
2023-02-06T18:28:45.492Z,64.53
2023-02-06T18:31:34.907Z,65.10
2023-02-06T18:34:07.851Z,65.17
2023-02-06T18:36:37.773Z,64.75
2023-02-06T18:39:06.775Z,65.02
2023-02-06T18:41:53.143Z,65.33
2023-02-06T18:44:21.250Z,64.22
2023-02-06T18:46:48.723Z,64.58
2023-02-06T18:49:17.484Z,64.91
2023-02-06T18:51:45.241Z,64.40
2023-02-06T18:54:13.162Z,65.26
2023-02-06T18:56:40.848Z,65.59
2023-02-06T18:59:08.889Z,65.10
2023-02-06T19:01:36.399Z,65.11
2023-02-06T19:04:04.689Z,64.82
2023-02-06T19:06:35.627Z,65.37
2023-02-06T19:09:09.265Z,65.49
2023-02-06T19:11:38.015Z,65.45
2023-02-06T19:14:09.172Z,65.93
2023-02-06T19:16:40.980Z,65.29
2023-02-06T19:19:09.624Z,65.08
2023-02-06T19:21:38.340Z,65.14
2023-02-06T19:24:07.335Z,65.96
2023-02-06T19:26:36.217Z,65.69
2023-02-06T19:29:05.134Z,66.21
2023-02-06T19:31:32.841Z,66.26
2023-02-06T19:34:02.315Z,65.85
2023-02-06T19:36:31.044Z,65.62
2023-02-06T19:39:02.963Z,66.54
2023-02-06T19:41:33.691Z,67.40
2023-02-06T19:44:09.828Z,67.28
2023-02-06T19:46:39.519Z,66.70
2023-02-06T19:49:08.824Z,66.68
2023-02-06T19:51:41.569Z,67.44
2023-02-06T19:54:09.847Z,67.89
2023-02-06T19:56:43.598Z,68.06
2023-02-06T19:59:19.555Z,68.19
2023-02-06T20:01:51.978Z,68.19
2023-02-06T20:04:25.929Z,68.66
2023-02-06T20:06:55.846Z,68.55
2023-02-06T20:09:24.837Z,68.80
2023-02-06T20:11:52.568Z,69.36
2023-02-06T20:14:21.949Z,68.62
2023-02-06T20:16:50.133Z,69.27
2023-02-06T20:19:27.116Z,68.90
2023-02-06T20:22:47.873Z,69.00
2023-02-06T20:25:16.636Z,69.45
2023-02-06T20:27:44.502Z,69.19
2023-02-06T20:30:13.308Z,69.35
2023-02-06T20:33:02.722Z,69.44
2023-02-06T20:35:33.179Z,69.29
2023-02-06T20:38:00.700Z,70.04
2023-02-06T20:40:28.665Z,69.70
2023-02-06T20:42:56.088Z,69.87
2023-02-06T20:45:24.077Z,70.64
2023-02-06T20:47:51.454Z,70.31
2023-02-06T20:50:19.697Z,70.66
2023-02-06T20:52:47.196Z,70.66
2023-02-06T20:55:14.936Z,71.22
2023-02-06T20:58:08.213Z,71.10
2023-02-06T21:00:36.359Z,70.81
2023-02-06T21:03:05.022Z,71.21
2023-02-06T21:05:33.025Z,71.17
2023-02-06T21:08:00.550Z,70.54
2023-02-06T21:10:28.402Z,70.72
2023-02-06T21:12:55.822Z,70.23
2023-02-06T21:15:23.908Z,70.67
2023-02-06T21:17:51.429Z,70.01
2023-02-06T21:20:20.632Z,69.75
2023-02-06T21:22:53.116Z,69.73
2023-02-06T21:25:21.718Z,69.28
2023-02-06T21:27:51.124Z,68.60
2023-02-06T21:30:19.567Z,68.77
2023-02-06T21:32:48.120Z,69.26
2023-02-06T21:35:17.272Z,69.18
2023-02-06T21:37:45.943Z,69.02
2023-02-06T21:40:15.625Z,69.13
2023-02-06T21:42:43.944Z,69.35
2023-02-06T21:45:11.833Z,68.68
2023-02-06T21:47:41.213Z,69.27
2023-02-06T21:50:09.524Z,69.32
2023-02-06T21:52:38.093Z,69.75
2023-02-06T21:55:07.662Z,70.08
2023-02-06T21:57:35.340Z,69.58
2023-02-06T22:00:04.872Z,69.33
2023-02-06T22:02:40.042Z,69.68
2023-02-06T22:05:08.344Z,69.31
2023-02-06T22:07:37.561Z,69.30
2023-02-06T22:10:06.119Z,69.88
2023-02-06T22:12:34.483Z,69.71
2023-02-06T22:15:02.524Z,69.93
2023-02-06T22:17:30.455Z,69.89
2023-02-06T22:19:58.419Z,69.87
2023-02-06T22:22:25.926Z,69.14
2023-02-06T22:24:53.785Z,69.98
2023-02-06T22:27:21.456Z,70.00
2023-02-06T22:29:49.368Z,70.27
2023-02-06T22:32:17.102Z,69.38
2023-02-06T22:34:45.056Z,69.86
2023-02-06T22:37:12.647Z,69.58
2023-02-06T22:39:40.467Z,69.77
2023-02-06T22:42:08.198Z,70.39
2023-02-06T22:44:36.475Z,70.08
2023-02-06T22:47:04.091Z,70.20
2023-02-06T22:49:32.490Z,69.98
2023-02-06T22:52:00.277Z,70.25
2023-02-06T22:54:28.201Z,70.63
2023-02-06T22:56:55.789Z,70.52
2023-02-06T22:59:25.778Z,70.85
2023-02-06T23:02:00.707Z,70.47
2023-02-06T23:04:34.763Z,70.94
2023-02-06T23:07:03.145Z,71.16
2023-02-06T23:09:35.213Z,71.26
2023-02-06T23:12:04.344Z,70.92
2023-02-06T23:14:33.530Z,71.46
2023-02-06T23:17:03.635Z,71.59
2023-02-06T23:19:31.951Z,71.50
2023-02-06T23:21:59.586Z,71.63
2023-02-06T23:24:27.801Z,71.95
2023-02-06T23:26:55.482Z,72.33
2023-02-06T23:29:24.316Z,72.04
2023-02-06T23:31:52.830Z,72.11
2023-02-06T23:34:23.819Z,72.42
2023-02-06T23:36:53.097Z,72.40
2023-02-06T23:39:21.355Z,72.57
2023-02-06T23:41:48.851Z,72.44
2023-02-06T23:44:17.291Z,72.20
2023-02-06T23:46:44.900Z,72.53
2023-02-06T23:49:12.845Z,73.27
2023-02-06T23:51:40.328Z,73.32
2023-02-06T23:54:09.168Z,74.31
2023-02-06T23:56:37.542Z,74.62
2023-02-06T23:59:06.650Z,75.00
